createdAt,value
2022-12-15T00:02:20.227Z,-5.75
2022-12-15T00:05:15.356Z,-5.76
2022-12-15T00:08:05.421Z,-5.77
2022-12-15T00:10:55.458Z,-5.78
2022-12-15T00:13:45.405Z,-5.81
2022-12-15T00:16:35.684Z,-5.82
2022-12-15T00:19:28.015Z,-5.81
2022-12-15T00:22:18.455Z,-5.80
2022-12-15T00:25:08.320Z,-5.79
2022-12-15T00:27:58.236Z,-5.81
2022-12-15T00:30:50.024Z,-5.80
2022-12-15T00:33:40.448Z,-5.82
2022-12-15T00:36:30.621Z,-5.82
2022-12-15T00:39:10.447Z,-5.82
2022-12-15T00:41:43.336Z,-5.80
2022-12-15T00:44:20.332Z,-5.77
2022-12-15T00:46:56.316Z,-5.74
2022-12-15T00:49:48.252Z,-5.72
2022-12-15T00:52:40.270Z,-5.73
2022-12-15T00:55:33.785Z,-5.78
2022-12-15T00:58:26.442Z,-5.83
2022-12-15T01:01:16.372Z,-5.83
2022-12-15T01:04:06.313Z,-5.81
2022-12-15T01:06:56.530Z,-5.81
2022-12-15T01:09:46.668Z,-5.86
2022-12-15T01:12:36.620Z,-5.87
2022-12-15T01:15:28.153Z,-5.91
2022-12-15T01:18:18.513Z,-5.96
2022-12-15T01:20:59.746Z,-5.99
2022-12-15T01:23:32.726Z,-5.99
2022-12-15T01:26:08.930Z,-6.00
2022-12-15T01:28:44.563Z,-6.05
2022-12-15T01:31:17.554Z,-6.11
2022-12-15T01:33:54.426Z,-6.14
2022-12-15T01:36:28.850Z,-6.17
2022-12-15T01:39:02.037Z,-6.15
2022-12-15T01:41:34.195Z,-6.16
2022-12-15T01:44:20.925Z,-6.15
2022-12-15T01:46:56.626Z,-6.18
2022-12-15T01:49:32.650Z,-6.20
2022-12-15T01:52:16.541Z,-6.23
2022-12-15T01:54:52.381Z,-6.25
2022-12-15T01:57:30.194Z,-6.28
2022-12-15T02:00:09.684Z,-6.31
2022-12-15T02:02:45.153Z,-6.32
2022-12-15T02:05:21.727Z,-6.34
2022-12-15T02:07:53.939Z,-6.37
2022-12-15T02:10:29.988Z,-6.37
2022-12-15T02:13:11.234Z,-6.39
2022-12-15T02:15:50.259Z,-6.41
2022-12-15T02:18:33.525Z,-6.41
2022-12-15T02:21:11.354Z,-6.44
2022-12-15T02:24:11.652Z,-6.45
2022-12-15T02:27:08.804Z,-6.50
2022-12-15T02:30:06.995Z,-6.53
2022-12-15T02:32:44.919Z,-6.56
2022-12-15T02:35:23.757Z,-6.59
2022-12-15T02:37:58.821Z,-6.62
2022-12-15T02:40:31.240Z,-6.63
2022-12-15T02:43:06.704Z,-6.67
2022-12-15T02:45:47.542Z,-6.66
2022-12-15T02:48:31.184Z,-6.68
2022-12-15T02:51:19.985Z,-6.73
2022-12-15T02:54:08.015Z,-6.77
2022-12-15T02:56:50.202Z,-6.84
2022-12-15T02:59:30.837Z,-6.87
2022-12-15T03:02:09.443Z,-6.89
2022-12-15T03:04:44.076Z,-6.93
2022-12-15T03:07:17.665Z,-6.94
2022-12-15T03:09:50.108Z,-6.96
2022-12-15T03:12:22.266Z,-7.00
2022-12-15T03:14:58.064Z,-7.05
2022-12-15T03:17:30.451Z,-7.09
2022-12-15T03:20:02.955Z,-7.11
2022-12-15T03:22:35.178Z,-7.11
2022-12-15T03:25:08.840Z,-7.15
2022-12-15T03:27:45.755Z,-7.19
2022-12-15T03:33:09.796Z,-7.12
2022-12-15T03:35:42.375Z,-7.06
2022-12-15T03:38:15.765Z,-6.97
2022-12-15T03:40:48.293Z,-6.87
2022-12-15T03:43:20.566Z,-6.78
2022-12-15T03:45:52.908Z,-6.65
2022-12-15T03:48:27.509Z,-6.55
2022-12-15T03:51:02.668Z,-6.46
2022-12-15T03:53:35.147Z,-6.41
2022-12-15T03:56:08.054Z,-6.41
2022-12-15T03:58:40.502Z,-6.43
2022-12-15T04:01:29.088Z,-6.46
2022-12-15T04:04:02.626Z,-6.58
2022-12-15T04:06:35.004Z,-6.72
2022-12-15T04:09:12.861Z,-6.92
2022-12-15T04:11:44.918Z,-7.10
2022-12-15T04:14:17.401Z,-7.15
2022-12-15T04:16:49.596Z,-7.17
2022-12-15T04:19:39.477Z,-7.19
2022-12-15T04:22:14.986Z,-7.15
2022-12-15T04:25:07.855Z,-7.08
2022-12-15T04:28:01.538Z,-7.02
2022-12-15T04:30:52.226Z,-7.01
2022-12-15T04:33:45.177Z,-7.00
2022-12-15T04:36:38.250Z,-6.95
2022-12-15T04:39:30.962Z,-6.93
2022-12-15T04:42:21.991Z,-6.85
2022-12-15T04:45:20.630Z,-6.75
2022-12-15T04:48:15.543Z,-6.78
2022-12-15T04:51:06.681Z,-6.80
2022-12-15T04:53:56.782Z,-6.81
2022-12-15T04:56:46.805Z,-6.81
2022-12-15T04:59:40.076Z,-6.79
2022-12-15T05:02:30.635Z,-6.79
2022-12-15T05:05:21.360Z,-6.79
2022-12-15T05:08:11.818Z,-6.78
2022-12-15T05:11:01.891Z,-6.80
2022-12-15T05:13:52.649Z,-6.84
2022-12-15T05:16:42.517Z,-6.85
2022-12-15T05:19:35.052Z,-6.82
2022-12-15T05:22:24.998Z,-6.84
2022-12-15T05:25:14.597Z,-6.81
2022-12-15T05:28:04.620Z,-6.81
2022-12-15T05:30:55.404Z,-6.86
2022-12-15T05:33:27.685Z,-6.84
2022-12-15T05:36:00.358Z,-6.87
2022-12-15T05:38:32.607Z,-6.83
2022-12-15T05:41:05.693Z,-6.80
2022-12-15T05:43:40.323Z,-6.76
2022-12-15T05:46:12.619Z,-6.72
2022-12-15T05:48:44.844Z,-6.71
2022-12-15T05:51:17.351Z,-6.65
2022-12-15T05:53:49.506Z,-6.59
2022-12-15T05:56:21.675Z,-6.59
2022-12-15T05:58:53.894Z,-6.55
2022-12-15T06:01:26.997Z,-6.53
2022-12-15T06:04:00.416Z,-6.59
2022-12-15T06:06:32.607Z,-6.58
2022-12-15T06:09:04.809Z,-6.56
2022-12-15T06:11:39.974Z,-6.58
2022-12-15T06:14:12.815Z,-6.58
2022-12-15T06:16:50.958Z,-6.54
2022-12-15T06:19:24.655Z,-6.50
2022-12-15T06:21:56.998Z,-6.48
2022-12-15T06:24:29.560Z,-6.46
2022-12-15T06:27:01.924Z,-6.45
2022-12-15T06:29:36.536Z,-6.41
2022-12-15T06:32:11.932Z,-6.41
2022-12-15T06:34:46.789Z,-6.43
2022-12-15T06:37:18.881Z,-6.41
2022-12-15T06:39:54.223Z,-6.40
2022-12-15T06:42:26.671Z,-6.39
2022-12-15T06:44:59.383Z,-6.45
2022-12-15T06:47:31.825Z,-6.51
2022-12-15T06:50:04.167Z,-6.52
2022-12-15T06:55:24.983Z,-6.62
2022-12-15T06:58:01.924Z,-6.65
2022-12-15T07:00:36.781Z,-6.65
2022-12-15T07:03:12.236Z,-6.66
2022-12-15T07:05:44.987Z,-6.69
2022-12-15T07:08:18.502Z,-6.70
2022-12-15T07:10:53.237Z,-6.70
2022-12-15T07:13:25.880Z,-6.70
2022-12-15T07:16:01.472Z,-6.73
2022-12-15T07:18:34.000Z,-6.74
2022-12-15T07:21:08.004Z,-6.73
2022-12-15T07:23:54.156Z,-6.72
2022-12-15T07:26:27.913Z,-6.75
2022-12-15T07:29:02.635Z,-6.72
2022-12-15T07:31:38.229Z,-6.74
2022-12-15T07:34:13.337Z,-6.72
2022-12-15T07:36:51.494Z,-6.71
2022-12-15T07:39:29.990Z,-6.73
2022-12-15T07:42:02.887Z,-6.72
2022-12-15T07:44:35.073Z,-6.63
2022-12-15T07:47:08.152Z,-6.57
2022-12-15T07:49:40.254Z,-6.53
2022-12-15T07:52:14.101Z,-6.51
2022-12-15T07:54:46.756Z,-6.51
2022-12-15T07:57:19.368Z,-6.47
2022-12-15T07:59:51.755Z,-6.45
2022-12-15T08:02:24.180Z,-6.46
2022-12-15T08:04:56.796Z,-6.45
2022-12-15T08:07:28.884Z,-6.41
2022-12-15T08:10:01.090Z,-6.37
2022-12-15T08:12:38.377Z,-6.33
2022-12-15T08:15:13.712Z,-6.30
2022-12-15T08:17:47.171Z,-6.27
2022-12-15T08:20:19.417Z,-6.25
2022-12-15T08:22:52.594Z,-6.25
2022-12-15T08:25:25.238Z,-6.25
2022-12-15T08:27:57.449Z,-6.29
2022-12-15T08:30:30.267Z,-6.37
2022-12-15T08:33:02.360Z,-6.35
2022-12-15T08:35:55.670Z,-6.31
2022-12-15T08:38:26.627Z,-6.30
2022-12-15T08:40:59.085Z,-6.26
2022-12-15T08:43:31.576Z,-6.19
2022-12-15T08:46:06.909Z,-6.15
2022-12-15T08:48:39.673Z,-6.10
2022-12-15T08:51:12.256Z,-6.04
2022-12-15T08:53:45.107Z,-5.96
2022-12-15T08:56:22.246Z,-5.90
2022-12-15T08:58:59.196Z,-5.87
2022-12-15T09:01:33.505Z,-5.82
2022-12-15T09:04:08.935Z,-5.77
2022-12-15T09:06:41.268Z,-5.72
2022-12-15T09:09:15.020Z,-5.65
2022-12-15T09:11:47.070Z,-5.58
2022-12-15T09:14:25.500Z,-5.52
2022-12-15T09:16:59.951Z,-5.51
2022-12-15T09:19:35.135Z,-5.46
2022-12-15T09:22:07.949Z,-5.40
2022-12-15T09:24:40.493Z,-5.35
2022-12-15T09:27:12.608Z,-5.30
2022-12-15T09:29:44.731Z,-5.26
2022-12-15T09:32:17.151Z,-5.20
2022-12-15T09:34:49.385Z,-5.16
2022-12-15T09:37:23.082Z,-5.12
2022-12-15T09:39:55.323Z,-5.09
2022-12-15T09:42:30.209Z,-5.07
2022-12-15T09:45:09.091Z,-5.03
2022-12-15T09:47:51.214Z,-4.97
2022-12-15T09:50:34.740Z,-4.92
2022-12-15T09:53:45.418Z,-4.88
2022-12-15T09:56:14.792Z,-4.82
2022-12-15T09:58:55.732Z,-4.80
2022-12-15T10:01:37.176Z,-4.79
2022-12-15T10:04:20.168Z,-4.74
2022-12-15T10:06:59.885Z,-4.71
2022-12-15T10:09:32.509Z,-4.64
2022-12-15T10:12:08.516Z,-4.59
2022-12-15T10:14:44.236Z,-4.54
2022-12-15T10:17:24.240Z,-4.45
2022-12-15T10:20:07.774Z,-4.36
2022-12-15T10:22:40.549Z,-4.31
2022-12-15T10:25:25.434Z,-4.29
2022-12-15T10:28:23.160Z,-4.21
2022-12-15T10:31:00.592Z,-4.13
2022-12-15T10:33:36.228Z,-4.08
2022-12-15T10:36:14.108Z,-4.06
2022-12-15T10:38:50.711Z,-3.96
2022-12-15T10:41:26.882Z,-3.92
2022-12-15T10:43:59.489Z,-3.90
2022-12-15T10:46:33.313Z,-3.87
2022-12-15T10:49:24.724Z,-3.84
2022-12-15T10:52:02.570Z,-3.82
2022-12-15T10:54:44.863Z,-3.73
2022-12-15T10:57:21.067Z,-3.69
2022-12-15T10:59:53.566Z,-3.63
2022-12-15T11:02:37.166Z,-3.58
2022-12-15T11:05:21.489Z,-3.56
2022-12-15T11:07:56.661Z,-3.54
2022-12-15T11:10:54.502Z,-3.48
2022-12-15T11:13:33.001Z,-3.47
2022-12-15T11:16:18.041Z,-3.44
2022-12-15T11:18:54.901Z,-3.43
2022-12-15T11:21:28.986Z,-3.42
2022-12-15T11:24:13.725Z,-3.41
2022-12-15T11:26:56.334Z,-3.40
2022-12-15T11:29:34.876Z,-3.43
2022-12-15T11:32:07.820Z,-3.41
2022-12-15T11:34:43.027Z,-3.41
2022-12-15T11:37:36.908Z,-3.38
2022-12-15T11:40:34.386Z,-3.37
2022-12-15T11:43:34.299Z,-3.33
2022-12-15T11:46:19.955Z,-3.30
2022-12-15T11:49:14.058Z,-3.34
2022-12-15T11:51:53.749Z,-3.33
2022-12-15T11:54:36.522Z,-3.31
2022-12-15T11:57:32.666Z,-3.25
2022-12-15T12:00:10.046Z,-3.24
2022-12-15T12:03:03.556Z,-3.24
2022-12-15T12:05:52.477Z,-3.21
2022-12-15T12:08:40.461Z,-3.21
2022-12-15T12:11:15.917Z,-3.23
2022-12-15T12:14:05.333Z,-3.24
2022-12-15T12:16:45.497Z,-3.20
2022-12-15T12:19:21.062Z,-3.17
2022-12-15T12:22:00.418Z,-3.15
2022-12-15T12:24:39.872Z,-3.10
2022-12-15T12:27:25.536Z,-3.10
2022-12-15T12:30:03.774Z,-3.08
2022-12-15T12:32:45.340Z,-3.07
2022-12-15T12:35:31.937Z,-3.09
2022-12-15T12:38:20.319Z,-3.10
2022-12-15T12:41:03.758Z,-3.12
2022-12-15T12:43:37.661Z,-3.12
2022-12-15T12:46:18.874Z,-3.10
2022-12-15T12:48:56.238Z,-3.10
2022-12-15T12:51:33.149Z,-3.12
2022-12-15T12:54:26.339Z,-3.14
2022-12-15T12:56:58.738Z,-3.13
2022-12-15T12:59:41.818Z,-3.08
2022-12-15T13:02:47.646Z,-3.06
2022-12-15T13:05:34.001Z,-3.08
2022-12-15T13:08:51.337Z,-3.08
2022-12-15T13:12:14.994Z,-3.14
2022-12-15T13:14:56.637Z,-3.19
2022-12-15T13:17:41.682Z,-3.16
2022-12-15T13:20:27.000Z,-3.11
2022-12-15T13:23:37.532Z,-3.07
2022-12-15T13:26:19.474Z,-3.06
2022-12-15T13:28:58.221Z,-3.06
2022-12-15T13:31:42.021Z,-3.02
2022-12-15T13:34:22.676Z,-3.00
2022-12-15T13:37:36.900Z,-2.99
2022-12-15T13:40:42.545Z,-3.00
2022-12-15T13:43:38.576Z,-2.99
2022-12-15T13:46:19.580Z,-2.99
2022-12-15T13:48:56.821Z,-2.96
2022-12-15T13:51:35.310Z,-2.94
2022-12-15T13:54:18.137Z,-2.98
2022-12-15T13:56:56.851Z,-3.00
2022-12-15T13:59:42.617Z,-2.99
2022-12-15T14:02:29.447Z,-3.01
2022-12-15T14:05:16.114Z,-3.05
2022-12-15T14:07:54.767Z,-3.06
2022-12-15T14:10:35.435Z,-3.06
2022-12-15T14:16:19.289Z,-3.07
2022-12-15T14:32:20.086Z,-3.02
2022-12-15T14:34:55.413Z,-3.06
2022-12-15T14:37:27.821Z,-3.02
2022-12-15T14:40:00.455Z,-2.95
2022-12-15T14:42:33.635Z,-2.89
2022-12-15T14:45:06.869Z,-2.83
2022-12-15T14:47:40.522Z,-2.78
2022-12-15T14:53:18.866Z,-2.81
2022-12-15T14:55:51.485Z,-2.81
2022-12-15T14:58:31.453Z,-2.78
2022-12-15T15:01:07.299Z,-2.75
2022-12-15T15:03:40.941Z,-2.74
2022-12-15T15:06:20.985Z,-2.76
2022-12-15T15:08:56.884Z,-2.80
2022-12-15T15:11:34.090Z,-2.80
2022-12-15T15:14:13.960Z,-2.82
2022-12-15T15:16:46.807Z,-2.85
2022-12-15T15:19:23.577Z,-2.90
2022-12-15T15:21:55.745Z,-2.93
2022-12-15T15:24:35.269Z,-2.97
2022-12-15T15:27:27.810Z,-3.01
2022-12-15T15:30:21.001Z,-3.01
2022-12-15T15:32:56.620Z,-2.98
2022-12-15T15:35:35.203Z,-2.96
2022-12-15T15:38:18.712Z,-2.93
2022-12-15T15:40:56.892Z,-2.90
2022-12-15T15:43:31.798Z,-2.87
2022-12-15T15:46:07.029Z,-2.82
2022-12-15T15:48:44.827Z,-2.79
2022-12-15T15:51:17.529Z,-2.77
2022-12-15T15:53:51.172Z,-2.78
2022-12-15T15:56:23.730Z,-2.78
2022-12-15T15:58:56.132Z,-2.75
2022-12-15T16:01:29.086Z,-2.71
2022-12-15T16:04:02.405Z,-2.69
2022-12-15T16:06:35.029Z,-2.67
2022-12-15T16:09:08.201Z,-2.66
2022-12-15T16:11:40.874Z,-2.69
2022-12-15T16:14:16.293Z,-2.71
2022-12-15T16:16:48.739Z,-2.71
2022-12-15T16:19:21.084Z,-2.66
2022-12-15T16:21:54.526Z,-2.66
2022-12-15T16:24:26.834Z,-2.64
2022-12-15T16:26:59.887Z,-2.62
2022-12-15T16:29:32.151Z,-2.60
2022-12-15T16:32:05.619Z,-2.64
2022-12-15T16:34:39.296Z,-2.67
2022-12-15T16:37:25.176Z,-2.69
2022-12-15T16:39:57.586Z,-2.71
2022-12-15T16:42:29.721Z,-2.70
2022-12-15T16:45:02.017Z,-2.70
2022-12-15T16:47:34.237Z,-2.67
2022-12-15T16:50:07.808Z,-2.64
2022-12-15T16:52:40.112Z,-2.62
2022-12-15T16:55:20.920Z,-2.58
2022-12-15T16:57:55.674Z,-2.56
2022-12-15T17:00:32.454Z,-2.59
2022-12-15T17:03:05.819Z,-2.65
2022-12-15T17:05:39.450Z,-2.66
2022-12-15T17:08:19.509Z,-2.66
2022-12-15T17:10:52.659Z,-2.68
2022-12-15T17:13:37.772Z,-2.70
2022-12-15T17:16:14.811Z,-2.70
2022-12-15T17:18:47.833Z,-2.69
2022-12-15T17:21:24.938Z,-2.69
2022-12-15T17:24:02.273Z,-2.68
2022-12-15T17:26:37.822Z,-2.70
2022-12-15T17:29:15.062Z,-2.70
2022-12-15T17:31:50.672Z,-2.74
2022-12-15T17:34:30.372Z,-2.77
2022-12-15T17:37:04.832Z,-2.80
2022-12-15T17:39:38.053Z,-2.82
2022-12-15T17:42:18.820Z,-2.85
2022-12-15T17:44:52.631Z,-2.90
2022-12-15T17:47:25.527Z,-2.84
2022-12-15T17:50:00.125Z,-2.82
2022-12-15T17:52:34.829Z,-2.79
2022-12-15T17:55:19.920Z,-2.78
2022-12-15T17:57:55.931Z,-2.81
2022-12-15T18:00:30.574Z,-2.77
2022-12-15T18:03:03.585Z,-2.75
2022-12-15T18:05:36.494Z,-2.73
2022-12-15T18:08:16.545Z,-2.72
2022-12-15T18:10:51.077Z,-2.71
2022-12-15T18:13:26.922Z,-2.70
2022-12-15T18:16:01.803Z,-2.70
2022-12-15T18:18:35.060Z,-2.70
2022-12-15T18:21:15.614Z,-2.72
2022-12-15T18:23:48.479Z,-2.69
2022-12-15T18:26:21.402Z,-2.68
2022-12-15T18:28:53.685Z,-2.66
2022-12-15T18:31:28.202Z,-2.68
2022-12-15T18:34:04.350Z,-2.70
2022-12-15T18:36:37.276Z,-2.71
2022-12-15T18:39:20.059Z,-2.73
2022-12-15T18:44:46.485Z,-2.77
2022-12-15T18:47:20.749Z,-2.84
2022-12-15T18:49:53.111Z,-2.81
2022-12-15T18:52:32.983Z,-2.77
2022-12-15T18:55:15.927Z,-2.78
2022-12-15T18:57:48.805Z,-2.79
2022-12-15T19:00:28.288Z,-2.79
2022-12-15T19:03:01.429Z,-2.77
2022-12-15T19:05:33.796Z,-2.76
2022-12-15T19:08:13.356Z,-2.80
2022-12-15T19:10:52.572Z,-2.77
2022-12-15T19:13:26.538Z,-2.74
2022-12-15T19:15:59.116Z,-2.72
2022-12-15T19:18:45.383Z,-2.71
2022-12-15T19:21:38.753Z,-2.69
2022-12-15T19:24:15.926Z,-2.69
2022-12-15T19:26:48.344Z,-2.67
2022-12-15T19:29:22.690Z,-2.69
2022-12-15T19:31:55.037Z,-2.69
2022-12-15T19:34:27.959Z,-2.67
2022-12-15T19:37:02.076Z,-2.67
2022-12-15T19:39:35.409Z,-2.67
2022-12-15T19:42:15.217Z,-2.67
2022-12-15T19:44:47.396Z,-2.68
2022-12-15T19:47:19.883Z,-2.71
2022-12-15T19:49:52.938Z,-2.73
2022-12-15T19:52:30.102Z,-2.71
2022-12-15T19:55:05.415Z,-2.68
2022-12-15T19:57:37.667Z,-2.66
2022-12-15T20:00:17.899Z,-2.65
2022-12-15T20:02:54.362Z,-2.64
2022-12-15T20:05:28.221Z,-2.61
2022-12-15T20:08:00.705Z,-2.61
2022-12-15T20:10:33.720Z,-2.60
2022-12-15T20:13:07.629Z,-2.62
2022-12-15T20:15:39.768Z,-2.62
2022-12-15T20:18:12.802Z,-2.60
2022-12-15T20:20:50.623Z,-2.60
2022-12-15T20:23:26.870Z,-2.60
2022-12-15T20:28:47.715Z,-2.61
2022-12-15T20:31:24.424Z,-2.60
2022-12-15T20:33:57.112Z,-2.60
2022-12-15T20:36:33.235Z,-2.59
2022-12-15T20:39:05.685Z,-2.58
2022-12-15T20:41:38.271Z,-2.60
2022-12-15T20:44:15.596Z,-2.60
2022-12-15T20:46:47.931Z,-2.60
2022-12-15T20:49:24.892Z,-2.58
2022-12-15T20:51:57.141Z,-2.58
2022-12-15T20:54:29.292Z,-2.57
2022-12-15T20:57:01.821Z,-2.56
2022-12-15T20:59:34.162Z,-2.55
2022-12-15T21:02:19.215Z,-2.54
2022-12-15T21:04:52.556Z,-2.58
2022-12-15T21:07:25.399Z,-2.57
2022-12-15T21:09:57.976Z,-2.60
2022-12-15T21:12:32.558Z,-2.60
2022-12-15T21:15:08.087Z,-2.60
2022-12-15T21:17:44.091Z,-2.59
2022-12-15T21:20:16.818Z,-2.57
2022-12-15T21:22:50.457Z,-2.55
2022-12-15T21:25:27.603Z,-2.57
2022-12-15T21:28:02.744Z,-2.56
2022-12-15T21:30:36.010Z,-2.58
2022-12-15T21:33:09.153Z,-2.63
2022-12-15T21:35:42.366Z,-2.69
2022-12-15T21:38:35.951Z,-2.71
2022-12-15T21:41:13.922Z,-2.72
2022-12-15T21:43:49.358Z,-2.71
2022-12-15T21:46:27.858Z,-2.70
2022-12-15T21:49:20.187Z,-2.65
2022-12-15T21:51:55.720Z,-2.65
2022-12-15T21:54:32.104Z,-2.67
2022-12-15T21:57:04.538Z,-2.64
2022-12-15T21:59:36.610Z,-2.62
2022-12-15T22:02:26.618Z,-2.62
2022-12-15T22:04:59.590Z,-2.63
2022-12-15T22:07:31.849Z,-2.61
2022-12-15T22:10:04.635Z,-2.61
2022-12-15T22:12:36.787Z,-2.61
2022-12-15T22:15:16.760Z,-2.62
2022-12-15T22:17:49.790Z,-2.67
2022-12-15T22:20:25.242Z,-2.65
2022-12-15T22:22:57.593Z,-2.68
2022-12-15T22:25:29.980Z,-2.70
2022-12-15T22:28:04.923Z,-2.73
2022-12-15T22:30:38.561Z,-2.75
2022-12-15T22:33:21.717Z,-2.78
2022-12-15T22:35:57.807Z,-2.84
2022-12-15T22:38:30.502Z,-2.87
2022-12-15T22:41:04.900Z,-2.92
2022-12-15T22:43:39.885Z,-2.97
2022-12-15T22:46:15.257Z,-3.01
2022-12-15T22:48:48.792Z,-3.04
2022-12-15T22:51:24.025Z,-3.06
2022-12-15T22:53:56.264Z,-3.09
2022-12-15T22:56:31.829Z,-3.13
2022-12-15T22:59:08.891Z,-3.16
2022-12-15T23:01:41.547Z,-3.20
2022-12-15T23:04:17.157Z,-3.25
2022-12-15T23:06:49.799Z,-3.30
2022-12-15T23:09:23.874Z,-3.34
2022-12-15T23:11:56.324Z,-3.37
2022-12-15T23:14:49.213Z,-3.39
2022-12-15T23:17:22.031Z,-3.45
2022-12-15T23:19:54.503Z,-3.49
2022-12-15T23:25:17.110Z,-3.58
2022-12-15T23:27:49.643Z,-3.62
2022-12-15T23:30:23.119Z,-3.65
2022-12-15T23:32:55.599Z,-3.67
2022-12-15T23:35:28.052Z,-3.68
2022-12-15T23:38:01.297Z,-3.71
2022-12-15T23:40:33.471Z,-3.72
2022-12-15T23:43:07.951Z,-3.75
2022-12-15T23:45:41.043Z,-3.77
2022-12-15T23:48:15.184Z,-3.79
2022-12-15T23:50:48.088Z,-3.81
2022-12-15T23:53:20.718Z,-3.83
2022-12-15T23:55:54.924Z,-3.87
2022-12-15T23:58:28.183Z,-3.88
